sensor_id;sensor_type;location;lat;lon;timestamp;P1;durP1;ratioP1;P2;durP2;ratioP2
4724;SDS011;2376;53.544;10.226;2023-07-02T00:01:43;4.10;;;2.80;;
4724;SDS011;2376;53.544;10.226;2023-07-02T00:04:10;5.50;;;3.33;;
4724;SDS011;2376;53.544;10.226;2023-07-02T00:06:38;4.30;;;3.00;;
4724;SDS011;2376;53.544;10.226;2023-07-02T00:09:05;6.37;;;3.50;;
4724;SDS011;2376;53.544;10.226;2023-07-02T00:11:32;10.43;;;3.83;;
4724;SDS011;2376;53.544;10.226;2023-07-02T00:13:59;6.30;;;3.30;;
4724;SDS011;2376;53.544;10.226;2023-07-02T00:16:25;6.87;;;3.67;;
4724;SDS011;2376;53.544;10.226;2023-07-02T00:18:53;4.93;;;2.90;;
4724;SDS011;2376;53.544;10.226;2023-07-02T00:21:20;3.77;;;3.07;;
4724;SDS011;2376;53.544;10.226;2023-07-02T00:23:46;7.30;;;3.20;;
4724;SDS011;2376;53.544;10.226;2023-07-02T00:26:13;3.37;;;2.57;;
4724;SDS011;2376;53.544;10.226;2023-07-02T00:28:40;5.43;;;3.33;;
4724;SDS011;2376;53.544;10.226;2023-07-02T00:31:06;4.03;;;3.73;;
4724;SDS011;2376;53.544;10.226;2023-07-02T00:33:33;7.60;;;4.10;;
4724;SDS011;2376;53.544;10.226;2023-07-02T00:36:01;6.07;;;4.10;;
4724;SDS011;2376;53.544;10.226;2023-07-02T00:38:28;4.70;;;3.30;;
4724;SDS011;2376;53.544;10.226;2023-07-02T00:40:54;4.43;;;3.63;;
4724;SDS011;2376;53.544;10.226;2023-07-02T00:43:21;8.40;;;3.90;;
4724;SDS011;2376;53.544;10.226;2023-07-02T00:45:48;4.60;;;4.30;;
4724;SDS011;2376;53.544;10.226;2023-07-02T00:48:15;4.40;;;3.83;;
4724;SDS011;2376;53.544;10.226;2023-07-02T00:50:42;12.03;;;3.83;;
4724;SDS011;2376;53.544;10.226;2023-07-02T00:53:10;3.87;;;3.30;;
4724;SDS011;2376;53.544;10.226;2023-07-02T00:55:37;6.83;;;3.40;;
4724;SDS011;2376;53.544;10.226;2023-07-02T00:58:04;14.90;;;3.87;;
4724;SDS011;2376;53.544;10.226;2023-07-02T01:00:31;4.43;;;3.70;;
4724;SDS011;2376;53.544;10.226;2023-07-02T01:02:58;5.07;;;3.63;;
4724;SDS011;2376;53.544;10.226;2023-07-02T01:05:25;4.23;;;3.73;;
4724;SDS011;2376;53.544;10.226;2023-07-02T01:07:57;4.10;;;3.77;;
4724;SDS011;2376;53.544;10.226;2023-07-02T01:10:25;4.13;;;3.00;;
4724;SDS011;2376;53.544;10.226;2023-07-02T01:12:52;3.70;;;3.50;;
4724;SDS011;2376;53.544;10.226;2023-07-02T01:15:19;4.90;;;3.70;;
4724;SDS011;2376;53.544;10.226;2023-07-02T01:17:46;11.93;;;3.90;;
4724;SDS011;2376;53.544;10.226;2023-07-02T01:20:14;4.80;;;3.80;;
4724;SDS011;2376;53.544;10.226;2023-07-02T01:22:41;7.20;;;3.90;;
4724;SDS011;2376;53.544;10.226;2023-07-02T01:25:08;8.40;;;3.70;;
4724;SDS011;2376;53.544;10.226;2023-07-02T01:27:35;8.77;;;4.47;;
4724;SDS011;2376;53.544;10.226;2023-07-02T01:30:02;3.70;;;3.40;;
4724;SDS011;2376;53.544;10.226;2023-07-02T01:32:29;7.70;;;3.30;;
4724;SDS011;2376;53.544;10.226;2023-07-02T01:34:56;6.63;;;3.50;;
4724;SDS011;2376;53.544;10.226;2023-07-02T01:37:25;4.70;;;3.57;;
4724;SDS011;2376;53.544;10.226;2023-07-02T01:39:52;3.13;;;2.80;;
4724;SDS011;2376;53.544;10.226;2023-07-02T01:42:18;10.43;;;2.80;;
4724;SDS011;2376;53.544;10.226;2023-07-02T01:44:46;5.50;;;3.10;;
4724;SDS011;2376;53.544;10.226;2023-07-02T01:47:13;4.17;;;3.87;;
4724;SDS011;2376;53.544;10.226;2023-07-02T01:49:40;5.07;;;4.13;;
4724;SDS011;2376;53.544;10.226;2023-07-02T01:52:07;4.70;;;3.80;;
4724;SDS011;2376;53.544;10.226;2023-07-02T01:54:35;5.57;;;3.60;;
4724;SDS011;2376;53.544;10.226;2023-07-02T01:57:02;4.20;;;3.80;;
4724;SDS011;2376;53.544;10.226;2023-07-02T01:59:29;12.77;;;5.20;;
4724;SDS011;2376;53.544;10.226;2023-07-02T02:01:56;6.07;;;4.00;;
4724;SDS011;2376;53.544;10.226;2023-07-02T02:04:23;5.70;;;4.40;;
4724;SDS011;2376;53.544;10.226;2023-07-02T02:06:50;5.20;;;3.60;;
4724;SDS011;2376;53.544;10.226;2023-07-02T02:09:17;5.93;;;3.87;;
4724;SDS011;2376;53.544;10.226;2023-07-02T02:11:47;5.10;;;4.00;;
4724;SDS011;2376;53.544;10.226;2023-07-02T02:14:17;5.53;;;3.97;;
4724;SDS011;2376;53.544;10.226;2023-07-02T02:16:43;4.67;;;3.97;;
4724;SDS011;2376;53.544;10.226;2023-07-02T02:19:11;5.63;;;4.30;;
4724;SDS011;2376;53.544;10.226;2023-07-02T02:21:39;6.70;;;4.10;;
4724;SDS011;2376;53.544;10.226;2023-07-02T02:24:06;9.47;;;4.93;;
4724;SDS011;2376;53.544;10.226;2023-07-02T02:26:33;5.63;;;5.00;;
4724;SDS011;2376;53.544;10.226;2023-07-02T02:29:01;11.30;;;5.80;;
4724;SDS011;2376;53.544;10.226;2023-07-02T02:31:28;8.00;;;4.67;;
4724;SDS011;2376;53.544;10.226;2023-07-02T02:33:55;4.50;;;4.07;;
4724;SDS011;2376;53.544;10.226;2023-07-02T02:36:22;4.63;;;4.27;;
4724;SDS011;2376;53.544;10.226;2023-07-02T02:38:49;5.73;;;4.03;;
4724;SDS011;2376;53.544;10.226;2023-07-02T02:41:16;6.47;;;4.13;;
4724;SDS011;2376;53.544;10.226;2023-07-02T02:43:42;6.70;;;4.83;;
4724;SDS011;2376;53.544;10.226;2023-07-02T02:46:10;6.50;;;4.13;;
4724;SDS011;2376;53.544;10.226;2023-07-02T02:48:37;9.23;;;4.03;;
4724;SDS011;2376;53.544;10.226;2023-07-02T02:51:04;4.73;;;4.13;;
4724;SDS011;2376;53.544;10.226;2023-07-02T02:53:31;6.87;;;4.27;;
4724;SDS011;2376;53.544;10.226;2023-07-02T02:55:57;4.50;;;4.10;;
4724;SDS011;2376;53.544;10.226;2023-07-02T02:58:24;6.63;;;4.20;;
4724;SDS011;2376;53.544;10.226;2023-07-02T03:00:53;5.37;;;4.00;;
4724;SDS011;2376;53.544;10.226;2023-07-02T03:03:21;5.60;;;3.83;;
4724;SDS011;2376;53.544;10.226;2023-07-02T03:05:49;10.63;;;4.50;;
4724;SDS011;2376;53.544;10.226;2023-07-02T03:08:15;6.50;;;3.77;;
4724;SDS011;2376;53.544;10.226;2023-07-02T03:10:42;5.63;;;4.47;;
4724;SDS011;2376;53.544;10.226;2023-07-02T03:13:09;4.77;;;4.27;;
4724;SDS011;2376;53.544;10.226;2023-07-02T03:15:36;10.53;;;4.10;;
4724;SDS011;2376;53.544;10.226;2023-07-02T03:18:02;5.50;;;4.00;;
4724;SDS011;2376;53.544;10.226;2023-07-02T03:20:31;5.13;;;4.20;;
4724;SDS011;2376;53.544;10.226;2023-07-02T03:22:57;6.57;;;4.80;;
4724;SDS011;2376;53.544;10.226;2023-07-02T03:25:24;6.53;;;4.17;;
4724;SDS011;2376;53.544;10.226;2023-07-02T03:27:51;7.47;;;4.27;;
4724;SDS011;2376;53.544;10.226;2023-07-02T03:30:17;4.90;;;4.13;;
4724;SDS011;2376;53.544;10.226;2023-07-02T03:32:44;4.80;;;4.40;;
4724;SDS011;2376;53.544;10.226;2023-07-02T03:35:11;7.17;;;4.53;;
4724;SDS011;2376;53.544;10.226;2023-07-02T03:37:39;12.10;;;4.93;;
4724;SDS011;2376;53.544;10.226;2023-07-02T03:40:07;5.30;;;4.67;;
4724;SDS011;2376;53.544;10.226;2023-07-02T03:42:34;8.73;;;4.83;;
4724;SDS011;2376;53.544;10.226;2023-07-02T03:45:01;9.23;;;5.23;;
4724;SDS011;2376;53.544;10.226;2023-07-02T03:47:28;8.27;;;4.03;;
4724;SDS011;2376;53.544;10.226;2023-07-02T03:49:55;10.30;;;5.10;;
4724;SDS011;2376;53.544;10.226;2023-07-02T03:52:22;7.30;;;4.17;;
4724;SDS011;2376;53.544;10.226;2023-07-02T03:54:49;14.27;;;5.93;;
4724;SDS011;2376;53.544;10.226;2023-07-02T03:57:16;7.27;;;4.33;;
4724;SDS011;2376;53.544;10.226;2023-07-02T03:59:43;8.90;;;4.90;;
4724;SDS011;2376;53.544;10.226;2023-07-02T04:02:10;8.10;;;4.80;;
4724;SDS011;2376;53.544;10.226;2023-07-02T04:04:36;9.30;;;4.60;;
4724;SDS011;2376;53.544;10.226;2023-07-02T04:07:03;4.23;;;3.73;;
4724;SDS011;2376;53.544;10.226;2023-07-02T04:09:30;10.53;;;4.90;;
4724;SDS011;2376;53.544;10.226;2023-07-02T04:11:59;5.23;;;4.07;;
4724;SDS011;2376;53.544;10.226;2023-07-02T04:14:26;6.33;;;5.07;;
4724;SDS011;2376;53.544;10.226;2023-07-02T04:16:52;5.90;;;4.37;;
4724;SDS011;2376;53.544;10.226;2023-07-02T04:19:19;7.40;;;4.27;;
4724;SDS011;2376;53.544;10.226;2023-07-02T04:21:45;5.53;;;4.63;;
4724;SDS011;2376;53.544;10.226;2023-07-02T04:24:12;8.50;;;6.00;;
4724;SDS011;2376;53.544;10.226;2023-07-02T04:26:39;9.87;;;5.03;;
4724;SDS011;2376;53.544;10.226;2023-07-02T04:29:09;9.07;;;4.83;;
4724;SDS011;2376;53.544;10.226;2023-07-02T04:31:35;5.70;;;4.60;;
4724;SDS011;2376;53.544;10.226;2023-07-02T04:34:02;9.50;;;5.23;;
4724;SDS011;2376;53.544;10.226;2023-07-02T04:36:30;11.53;;;5.97;;
4724;SDS011;2376;53.544;10.226;2023-07-02T04:38:57;8.67;;;5.47;;
4724;SDS011;2376;53.544;10.226;2023-07-02T04:41:24;5.93;;;4.33;;
4724;SDS011;2376;53.544;10.226;2023-07-02T04:43:51;8.73;;;5.07;;
4724;SDS011;2376;53.544;10.226;2023-07-02T04:46:19;8.43;;;5.20;;
4724;SDS011;2376;53.544;10.226;2023-07-02T04:48:46;8.80;;;5.57;;
4724;SDS011;2376;53.544;10.226;2023-07-02T04:51:13;10.83;;;5.13;;
4724;SDS011;2376;53.544;10.226;2023-07-02T04:53:40;10.00;;;5.20;;
4724;SDS011;2376;53.544;10.226;2023-07-02T04:56:06;10.87;;;5.90;;
4724;SDS011;2376;53.544;10.226;2023-07-02T04:58:33;10.27;;;5.70;;
4724;SDS011;2376;53.544;10.226;2023-07-02T05:01:00;16.30;;;5.60;;
4724;SDS011;2376;53.544;10.226;2023-07-02T05:03:28;6.23;;;5.33;;
4724;SDS011;2376;53.544;10.226;2023-07-02T05:05:54;13.07;;;5.43;;
4724;SDS011;2376;53.544;10.226;2023-07-02T05:08:21;12.90;;;5.60;;
4724;SDS011;2376;53.544;10.226;2023-07-02T05:10:48;14.03;;;6.20;;
4724;SDS011;2376;53.544;10.226;2023-07-02T05:13:15;10.00;;;5.37;;
4724;SDS011;2376;53.544;10.226;2023-07-02T05:15:41;11.13;;;5.90;;
4724;SDS011;2376;53.544;10.226;2023-07-02T05:18:08;12.50;;;6.00;;
4724;SDS011;2376;53.544;10.226;2023-07-02T05:20:36;10.93;;;6.13;;
4724;SDS011;2376;53.544;10.226;2023-07-02T05:23:03;14.10;;;6.60;;
4724;SDS011;2376;53.544;10.226;2023-07-02T05:25:29;13.97;;;7.03;;
4724;SDS011;2376;53.544;10.226;2023-07-02T05:27:57;14.73;;;6.47;;
4724;SDS011;2376;53.544;10.226;2023-07-02T05:30:24;11.27;;;6.77;;
4724;SDS011;2376;53.544;10.226;2023-07-02T05:32:51;11.70;;;6.70;;
4724;SDS011;2376;53.544;10.226;2023-07-02T05:35:17;15.97;;;6.40;;
4724;SDS011;2376;53.544;10.226;2023-07-02T05:37:45;14.93;;;7.10;;
4724;SDS011;2376;53.544;10.226;2023-07-02T05:40:12;11.83;;;6.23;;
4724;SDS011;2376;53.544;10.226;2023-07-02T05:42:39;12.97;;;6.93;;
4724;SDS011;2376;53.544;10.226;2023-07-02T05:45:08;19.70;;;6.83;;
4724;SDS011;2376;53.544;10.226;2023-07-02T05:47:35;12.57;;;6.20;;
4724;SDS011;2376;53.544;10.226;2023-07-02T05:50:04;14.60;;;6.00;;
4724;SDS011;2376;53.544;10.226;2023-07-02T05:52:33;9.00;;;5.40;;
4724;SDS011;2376;53.544;10.226;2023-07-02T05:55:01;22.77;;;6.37;;
4724;SDS011;2376;53.544;10.226;2023-07-02T05:57:27;16.60;;;7.00;;
4724;SDS011;2376;53.544;10.226;2023-07-02T05:59:54;12.23;;;6.50;;
4724;SDS011;2376;53.544;10.226;2023-07-02T06:02:21;20.17;;;6.97;;
4724;SDS011;2376;53.544;10.226;2023-07-02T06:04:47;19.40;;;6.33;;
4724;SDS011;2376;53.544;10.226;2023-07-02T06:07:14;15.43;;;6.57;;
4724;SDS011;2376;53.544;10.226;2023-07-02T06:09:41;15.83;;;6.70;;
4724;SDS011;2376;53.544;10.226;2023-07-02T06:12:09;14.90;;;6.17;;
4724;SDS011;2376;53.544;10.226;2023-07-02T06:14:36;14.63;;;6.27;;
4724;SDS011;2376;53.544;10.226;2023-07-02T06:17:03;15.53;;;7.27;;
4724;SDS011;2376;53.544;10.226;2023-07-02T06:19:31;18.93;;;7.63;;
4724;SDS011;2376;53.544;10.226;2023-07-02T06:21:58;10.57;;;6.17;;
4724;SDS011;2376;53.544;10.226;2023-07-02T06:24:25;20.50;;;7.93;;
4724;SDS011;2376;53.544;10.226;2023-07-02T06:26:51;18.87;;;6.57;;
4724;SDS011;2376;53.544;10.226;2023-07-02T06:29:21;18.50;;;7.30;;
4724;SDS011;2376;53.544;10.226;2023-07-02T06:31:48;15.63;;;6.80;;
4724;SDS011;2376;53.544;10.226;2023-07-02T06:34:15;12.57;;;7.50;;
4724;SDS011;2376;53.544;10.226;2023-07-02T06:36:42;14.20;;;6.60;;
4724;SDS011;2376;53.544;10.226;2023-07-02T06:39:08;20.93;;;7.47;;
4724;SDS011;2376;53.544;10.226;2023-07-02T06:41:35;17.20;;;7.10;;
4724;SDS011;2376;53.544;10.226;2023-07-02T06:44:02;13.17;;;7.93;;
4724;SDS011;2376;53.544;10.226;2023-07-02T06:46:30;13.37;;;8.03;;
4724;SDS011;2376;53.544;10.226;2023-07-02T06:48:57;14.73;;;6.67;;
4724;SDS011;2376;53.544;10.226;2023-07-02T06:51:24;16.23;;;7.70;;
4724;SDS011;2376;53.544;10.226;2023-07-02T06:53:52;18.30;;;8.13;;
4724;SDS011;2376;53.544;10.226;2023-07-02T06:56:18;16.83;;;6.90;;
4724;SDS011;2376;53.544;10.226;2023-07-02T06:58:45;12.23;;;6.50;;
4724;SDS011;2376;53.544;10.226;2023-07-02T07:01:12;16.87;;;7.23;;
4724;SDS011;2376;53.544;10.226;2023-07-02T07:03:40;17.43;;;8.70;;
4724;SDS011;2376;53.544;10.226;2023-07-02T07:06:06;11.90;;;7.00;;
4724;SDS011;2376;53.544;10.226;2023-07-02T07:08:36;20.17;;;6.90;;
4724;SDS011;2376;53.544;10.226;2023-07-02T07:11:03;14.67;;;7.30;;
4724;SDS011;2376;53.544;10.226;2023-07-02T07:13:30;19.43;;;7.53;;
4724;SDS011;2376;53.544;10.226;2023-07-02T07:15:57;11.93;;;6.77;;
4724;SDS011;2376;53.544;10.226;2023-07-02T07:18:23;10.80;;;6.50;;
4724;SDS011;2376;53.544;10.226;2023-07-02T07:20:52;14.80;;;7.67;;
4724;SDS011;2376;53.544;10.226;2023-07-02T07:23:18;13.53;;;6.50;;
4724;SDS011;2376;53.544;10.226;2023-07-02T07:25:45;12.63;;;7.03;;
4724;SDS011;2376;53.544;10.226;2023-07-02T07:28:12;15.20;;;7.40;;
4724;SDS011;2376;53.544;10.226;2023-07-02T07:30:40;16.80;;;7.20;;
4724;SDS011;2376;53.544;10.226;2023-07-02T07:33:07;13.87;;;7.90;;
4724;SDS011;2376;53.544;10.226;2023-07-02T07:35:34;12.50;;;6.60;;
4724;SDS011;2376;53.544;10.226;2023-07-02T07:38:02;24.40;;;9.10;;
4724;SDS011;2376;53.544;10.226;2023-07-02T07:40:29;19.83;;;8.10;;
4724;SDS011;2376;53.544;10.226;2023-07-02T07:42:55;12.00;;;6.53;;
4724;SDS011;2376;53.544;10.226;2023-07-02T07:45:22;18.73;;;6.97;;
4724;SDS011;2376;53.544;10.226;2023-07-02T07:47:49;12.30;;;6.40;;
4724;SDS011;2376;53.544;10.226;2023-07-02T07:50:16;11.37;;;6.70;;
4724;SDS011;2376;53.544;10.226;2023-07-02T07:52:43;15.17;;;5.93;;
4724;SDS011;2376;53.544;10.226;2023-07-02T07:55:11;12.90;;;7.57;;
4724;SDS011;2376;53.544;10.226;2023-07-02T07:57:38;19.03;;;7.20;;
4724;SDS011;2376;53.544;10.226;2023-07-02T08:00:05;16.93;;;7.20;;
4724;SDS011;2376;53.544;10.226;2023-07-02T08:02:34;9.53;;;6.60;;
4724;SDS011;2376;53.544;10.226;2023-07-02T08:05:01;16.57;;;7.27;;
4724;SDS011;2376;53.544;10.226;2023-07-02T08:07:28;14.00;;;5.67;;
4724;SDS011;2376;53.544;10.226;2023-07-02T08:09:56;14.60;;;8.17;;
4724;SDS011;2376;53.544;10.226;2023-07-02T08:12:24;13.83;;;6.73;;
4724;SDS011;2376;53.544;10.226;2023-07-02T08:14:53;10.03;;;5.87;;
4724;SDS011;2376;53.544;10.226;2023-07-02T08:17:20;13.97;;;6.17;;
4724;SDS011;2376;53.544;10.226;2023-07-02T08:19:47;14.50;;;6.87;;
4724;SDS011;2376;53.544;10.226;2023-07-02T08:22:13;9.63;;;6.07;;
4724;SDS011;2376;53.544;10.226;2023-07-02T08:24:40;10.23;;;6.60;;
4724;SDS011;2376;53.544;10.226;2023-07-02T08:27:07;12.33;;;6.33;;
4724;SDS011;2376;53.544;10.226;2023-07-02T08:29:36;13.30;;;6.60;;
4724;SDS011;2376;53.544;10.226;2023-07-02T08:32:03;8.83;;;6.33;;
4724;SDS011;2376;53.544;10.226;2023-07-02T08:34:30;15.00;;;7.20;;
4724;SDS011;2376;53.544;10.226;2023-07-02T08:36:57;7.80;;;5.37;;
4724;SDS011;2376;53.544;10.226;2023-07-02T08:39:23;11.67;;;6.47;;
4724;SDS011;2376;53.544;10.226;2023-07-02T08:41:50;13.47;;;6.33;;
4724;SDS011;2376;53.544;10.226;2023-07-02T08:44:19;11.07;;;6.57;;
4724;SDS011;2376;53.544;10.226;2023-07-02T08:46:48;7.93;;;5.30;;
4724;SDS011;2376;53.544;10.226;2023-07-02T08:49:18;12.83;;;5.20;;
4724;SDS011;2376;53.544;10.226;2023-07-02T08:51:45;9.40;;;5.70;;
4724;SDS011;2376;53.544;10.226;2023-07-02T08:54:12;8.27;;;4.47;;
4724;SDS011;2376;53.544;10.226;2023-07-02T08:56:40;5.70;;;4.37;;
4724;SDS011;2376;53.544;10.226;2023-07-02T08:59:07;9.43;;;5.30;;
4724;SDS011;2376;53.544;10.226;2023-07-02T09:01:44;15.20;;;5.40;;
4724;SDS011;2376;53.544;10.226;2023-07-02T09:04:15;8.87;;;5.70;;
4724;SDS011;2376;53.544;10.226;2023-07-02T09:06:43;11.03;;;4.83;;
4724;SDS011;2376;53.544;10.226;2023-07-02T09:09:09;8.83;;;4.53;;
4724;SDS011;2376;53.544;10.226;2023-07-02T09:11:45;13.90;;;4.53;;
4724;SDS011;2376;53.544;10.226;2023-07-02T09:14:23;9.57;;;4.43;;
4724;SDS011;2376;53.544;10.226;2023-07-02T09:17:00;6.30;;;4.17;;
4724;SDS011;2376;53.544;10.226;2023-07-02T09:19:33;6.63;;;4.33;;
4724;SDS011;2376;53.544;10.226;2023-07-02T09:22:00;9.37;;;5.10;;
4724;SDS011;2376;53.544;10.226;2023-07-02T09:24:27;12.97;;;5.00;;
4724;SDS011;2376;53.544;10.226;2023-07-02T09:26:55;7.57;;;4.87;;
4724;SDS011;2376;53.544;10.226;2023-07-02T09:29:23;8.47;;;4.20;;
4724;SDS011;2376;53.544;10.226;2023-07-02T09:31:53;6.67;;;3.60;;
4724;SDS011;2376;53.544;10.226;2023-07-02T09:34:20;7.93;;;4.47;;
4724;SDS011;2376;53.544;10.226;2023-07-02T09:36:55;12.90;;;4.77;;
4724;SDS011;2376;53.544;10.226;2023-07-02T09:39:25;15.70;;;4.60;;
4724;SDS011;2376;53.544;10.226;2023-07-02T09:41:54;8.40;;;4.70;;
4724;SDS011;2376;53.544;10.226;2023-07-02T09:44:22;8.73;;;5.10;;
4724;SDS011;2376;53.544;10.226;2023-07-02T09:46:53;12.50;;;4.90;;
4724;SDS011;2376;53.544;10.226;2023-07-02T09:49:24;7.43;;;4.57;;
4724;SDS011;2376;53.544;10.226;2023-07-02T09:51:52;12.97;;;7.93;;
4724;SDS011;2376;53.544;10.226;2023-07-02T09:54:21;16.47;;;7.87;;
4724;SDS011;2376;53.544;10.226;2023-07-02T09:56:48;7.60;;;3.70;;
4724;SDS011;2376;53.544;10.226;2023-07-02T09:59:14;8.60;;;4.70;;
4724;SDS011;2376;53.544;10.226;2023-07-02T10:01:41;9.60;;;5.10;;
4724;SDS011;2376;53.544;10.226;2023-07-02T10:04:12;9.60;;;4.80;;
4724;SDS011;2376;53.544;10.226;2023-07-02T10:06:46;9.83;;;4.90;;
4724;SDS011;2376;53.544;10.226;2023-07-02T10:09:14;6.97;;;3.70;;
4724;SDS011;2376;53.544;10.226;2023-07-02T10:11:42;10.60;;;4.80;;
4724;SDS011;2376;53.544;10.226;2023-07-02T10:14:09;10.63;;;4.80;;
4724;SDS011;2376;53.544;10.226;2023-07-02T10:16:48;10.83;;;5.07;;
4724;SDS011;2376;53.544;10.226;2023-07-02T10:19:15;7.77;;;4.40;;
4724;SDS011;2376;53.544;10.226;2023-07-02T10:21:42;8.60;;;5.17;;
4724;SDS011;2376;53.544;10.226;2023-07-02T10:24:11;6.30;;;4.20;;
4724;SDS011;2376;53.544;10.226;2023-07-02T10:26:50;8.13;;;4.47;;
4724;SDS011;2376;53.544;10.226;2023-07-02T10:29:18;7.30;;;4.60;;
4724;SDS011;2376;53.544;10.226;2023-07-02T10:31:48;5.90;;;4.17;;
4724;SDS011;2376;53.544;10.226;2023-07-02T10:34:15;7.30;;;4.73;;
4724;SDS011;2376;53.544;10.226;2023-07-02T10:36:42;9.10;;;4.77;;
4724;SDS011;2376;53.544;10.226;2023-07-02T10:39:08;7.87;;;3.90;;
4724;SDS011;2376;53.544;10.226;2023-07-02T10:41:35;5.60;;;3.50;;
4724;SDS011;2376;53.544;10.226;2023-07-02T10:44:06;11.70;;;4.17;;
4724;SDS011;2376;53.544;10.226;2023-07-02T10:46:34;10.40;;;4.47;;
4724;SDS011;2376;53.544;10.226;2023-07-02T10:49:00;6.40;;;3.77;;
4724;SDS011;2376;53.544;10.226;2023-07-02T10:51:27;8.10;;;4.70;;
4724;SDS011;2376;53.544;10.226;2023-07-02T10:53:57;10.50;;;3.80;;
4724;SDS011;2376;53.544;10.226;2023-07-02T10:56:24;8.47;;;4.73;;
4724;SDS011;2376;53.544;10.226;2023-07-02T10:58:51;11.23;;;4.63;;
4724;SDS011;2376;53.544;10.226;2023-07-02T11:01:23;7.40;;;3.97;;
4724;SDS011;2376;53.544;10.226;2023-07-02T11:03:57;5.90;;;3.70;;
4724;SDS011;2376;53.544;10.226;2023-07-02T11:06:25;5.70;;;3.80;;
4724;SDS011;2376;53.544;10.226;2023-07-02T11:08:52;5.90;;;4.07;;
4724;SDS011;2376;53.544;10.226;2023-07-02T11:11:20;7.93;;;3.83;;
4724;SDS011;2376;53.544;10.226;2023-07-02T11:13:48;12.00;;;4.80;;
4724;SDS011;2376;53.544;10.226;2023-07-02T11:16:19;5.57;;;3.40;;
4724;SDS011;2376;53.544;10.226;2023-07-02T11:18:50;11.17;;;4.23;;
4724;SDS011;2376;53.544;10.226;2023-07-02T11:21:18;5.47;;;3.80;;
4724;SDS011;2376;53.544;10.226;2023-07-02T11:23:44;5.80;;;3.13;;
4724;SDS011;2376;53.544;10.226;2023-07-02T11:26:11;8.60;;;3.50;;
4724;SDS011;2376;53.544;10.226;2023-07-02T11:28:47;8.97;;;2.73;;
4724;SDS011;2376;53.544;10.226;2023-07-02T11:31:23;5.77;;;3.47;;
4724;SDS011;2376;53.544;10.226;2023-07-02T11:33:52;6.23;;;2.93;;
4724;SDS011;2376;53.544;10.226;2023-07-02T11:36:22;7.70;;;3.33;;
4724;SDS011;2376;53.544;10.226;2023-07-02T11:38:50;8.90;;;2.70;;
4724;SDS011;2376;53.544;10.226;2023-07-02T11:41:17;14.10;;;3.10;;
4724;SDS011;2376;53.544;10.226;2023-07-02T11:43:44;5.57;;;3.87;;
4724;SDS011;2376;53.544;10.226;2023-07-02T11:46:12;5.50;;;3.37;;
4724;SDS011;2376;53.544;10.226;2023-07-02T11:48:40;5.50;;;2.90;;
4724;SDS011;2376;53.544;10.226;2023-07-02T11:51:08;6.07;;;2.60;;
4724;SDS011;2376;53.544;10.226;2023-07-02T11:53:35;3.30;;;2.97;;
4724;SDS011;2376;53.544;10.226;2023-07-02T11:56:01;7.13;;;3.43;;
4724;SDS011;2376;53.544;10.226;2023-07-02T11:58:28;4.87;;;2.50;;
4724;SDS011;2376;53.544;10.226;2023-07-02T12:00:55;9.63;;;2.60;;
4724;SDS011;2376;53.544;10.226;2023-07-02T12:03:21;3.40;;;2.40;;
4724;SDS011;2376;53.544;10.226;2023-07-02T12:05:48;3.37;;;2.40;;
4724;SDS011;2376;53.544;10.226;2023-07-02T12:08:16;4.10;;;3.10;;
4724;SDS011;2376;53.544;10.226;2023-07-02T12:10:42;3.43;;;2.50;;
4724;SDS011;2376;53.544;10.226;2023-07-02T12:13:09;4.27;;;2.60;;
4724;SDS011;2376;53.544;10.226;2023-07-02T12:15:36;3.63;;;2.30;;
4724;SDS011;2376;53.544;10.226;2023-07-02T12:18:03;3.93;;;2.57;;
4724;SDS011;2376;53.544;10.226;2023-07-02T12:20:30;5.47;;;2.10;;
4724;SDS011;2376;53.544;10.226;2023-07-02T12:22:56;5.13;;;2.50;;
4724;SDS011;2376;53.544;10.226;2023-07-02T12:25:24;4.60;;;2.37;;
4724;SDS011;2376;53.544;10.226;2023-07-02T12:27:51;8.10;;;2.30;;
4724;SDS011;2376;53.544;10.226;2023-07-02T12:30:18;6.77;;;2.27;;
4724;SDS011;2376;53.544;10.226;2023-07-02T12:32:45;3.40;;;2.20;;
4724;SDS011;2376;53.544;10.226;2023-07-02T12:35:12;7.27;;;2.50;;
4724;SDS011;2376;53.544;10.226;2023-07-02T12:37:42;3.50;;;2.50;;
4724;SDS011;2376;53.544;10.226;2023-07-02T12:40:10;5.80;;;2.90;;
4724;SDS011;2376;53.544;10.226;2023-07-02T12:42:38;6.10;;;2.80;;
4724;SDS011;2376;53.544;10.226;2023-07-02T12:45:06;3.77;;;2.40;;
4724;SDS011;2376;53.544;10.226;2023-07-02T12:47:34;14.50;;;3.20;;
4724;SDS011;2376;53.544;10.226;2023-07-02T12:50:01;3.33;;;2.30;;
4724;SDS011;2376;53.544;10.226;2023-07-02T12:52:28;5.00;;;2.60;;
4724;SDS011;2376;53.544;10.226;2023-07-02T12:54:54;4.20;;;2.73;;
4724;SDS011;2376;53.544;10.226;2023-07-02T12:57:21;7.20;;;2.60;;
4724;SDS011;2376;53.544;10.226;2023-07-02T12:59:49;5.27;;;2.03;;
4724;SDS011;2376;53.544;10.226;2023-07-02T13:02:16;4.70;;;2.10;;
4724;SDS011;2376;53.544;10.226;2023-07-02T13:04:42;3.03;;;2.47;;
4724;SDS011;2376;53.544;10.226;2023-07-02T13:07:10;6.03;;;3.00;;
4724;SDS011;2376;53.544;10.226;2023-07-02T13:09:37;4.30;;;2.40;;
4724;SDS011;2376;53.544;10.226;2023-07-02T13:12:04;3.33;;;2.50;;
4724;SDS011;2376;53.544;10.226;2023-07-02T13:14:31;7.63;;;2.23;;
4724;SDS011;2376;53.544;10.226;2023-07-02T13:16:59;7.73;;;2.33;;
4724;SDS011;2376;53.544;10.226;2023-07-02T13:19:28;2.50;;;2.03;;
4724;SDS011;2376;53.544;10.226;2023-07-02T13:21:54;5.70;;;2.30;;
4724;SDS011;2376;53.544;10.226;2023-07-02T13:24:21;6.73;;;2.17;;
4724;SDS011;2376;53.544;10.226;2023-07-02T13:26:48;5.90;;;2.40;;
4724;SDS011;2376;53.544;10.226;2023-07-02T13:29:14;4.17;;;2.20;;
4724;SDS011;2376;53.544;10.226;2023-07-02T13:31:41;6.53;;;2.40;;
4724;SDS011;2376;53.544;10.226;2023-07-02T13:34:09;6.80;;;2.17;;
4724;SDS011;2376;53.544;10.226;2023-07-02T13:36:36;3.43;;;2.00;;
4724;SDS011;2376;53.544;10.226;2023-07-02T13:39:03;4.97;;;2.97;;
4724;SDS011;2376;53.544;10.226;2023-07-02T13:41:30;7.33;;;3.50;;
4724;SDS011;2376;53.544;10.226;2023-07-02T13:43:56;3.80;;;2.37;;
4724;SDS011;2376;53.544;10.226;2023-07-02T13:46:23;6.10;;;2.33;;
4724;SDS011;2376;53.544;10.226;2023-07-02T13:48:50;2.87;;;2.27;;
4724;SDS011;2376;53.544;10.226;2023-07-02T13:51:18;4.37;;;2.30;;
4724;SDS011;2376;53.544;10.226;2023-07-02T13:53:44;3.13;;;1.80;;
4724;SDS011;2376;53.544;10.226;2023-07-02T13:56:11;3.27;;;1.80;;
4724;SDS011;2376;53.544;10.226;2023-07-02T13:58:58;4.63;;;2.23;;
4724;SDS011;2376;53.544;10.226;2023-07-02T14:01:28;2.27;;;1.80;;
4724;SDS011;2376;53.544;10.226;2023-07-02T14:03:55;3.60;;;2.37;;
4724;SDS011;2376;53.544;10.226;2023-07-02T14:06:22;7.67;;;2.13;;
4724;SDS011;2376;53.544;10.226;2023-07-02T14:08:49;5.40;;;2.37;;
4724;SDS011;2376;53.544;10.226;2023-07-02T14:11:15;6.50;;;2.20;;
4724;SDS011;2376;53.544;10.226;2023-07-02T14:13:42;4.80;;;2.63;;
4724;SDS011;2376;53.544;10.226;2023-07-02T14:16:10;8.50;;;2.93;;
4724;SDS011;2376;53.544;10.226;2023-07-02T14:18:37;4.53;;;1.93;;
4724;SDS011;2376;53.544;10.226;2023-07-02T14:21:03;4.20;;;2.77;;
4724;SDS011;2376;53.544;10.226;2023-07-02T14:23:31;2.50;;;2.30;;
4724;SDS011;2376;53.544;10.226;2023-07-02T14:25:57;6.50;;;3.40;;
4724;SDS011;2376;53.544;10.226;2023-07-02T14:28:25;3.13;;;2.30;;
4724;SDS011;2376;53.544;10.226;2023-07-02T14:30:57;3.77;;;2.50;;
4724;SDS011;2376;53.544;10.226;2023-07-02T14:33:26;9.43;;;3.10;;
4724;SDS011;2376;53.544;10.226;2023-07-02T14:35:54;3.47;;;2.80;;
4724;SDS011;2376;53.544;10.226;2023-07-02T14:38:21;4.13;;;2.90;;
4724;SDS011;2376;53.544;10.226;2023-07-02T14:40:48;3.60;;;3.30;;
4724;SDS011;2376;53.544;10.226;2023-07-02T14:43:15;3.40;;;2.23;;
4724;SDS011;2376;53.544;10.226;2023-07-02T14:45:43;3.73;;;2.70;;
4724;SDS011;2376;53.544;10.226;2023-07-02T14:48:12;4.00;;;2.50;;
4724;SDS011;2376;53.544;10.226;2023-07-02T14:50:43;2.60;;;2.40;;
4724;SDS011;2376;53.544;10.226;2023-07-02T14:53:11;5.13;;;3.00;;
4724;SDS011;2376;53.544;10.226;2023-07-02T14:55:37;4.90;;;2.53;;
4724;SDS011;2376;53.544;10.226;2023-07-02T14:58:05;3.93;;;2.27;;
4724;SDS011;2376;53.544;10.226;2023-07-02T15:00:32;3.43;;;2.30;;